createdAt,value
2017-09-29T00:00:03.899Z,0
2017-09-29T00:01:03.483Z,0
2017-09-29T00:02:03.481Z,0
2017-09-29T00:03:03.813Z,0
2017-09-29T00:04:03.522Z,0
2017-09-29T00:05:03.548Z,0
2017-09-29T00:06:03.573Z,0
2017-09-29T00:07:03.594Z,0
2017-09-29T00:08:03.625Z,0
2017-09-29T00:09:03.645Z,0
2017-09-29T00:10:04.638Z,0
2017-09-29T00:11:03.688Z,0
2017-09-29T00:12:03.702Z,0
2017-09-29T00:13:03.732Z,0
2017-09-29T00:14:04.120Z,0
2017-09-29T00:15:03.784Z,0
2017-09-29T00:16:03.833Z,0
2017-09-29T00:17:03.825Z,0
2017-09-29T00:18:03.845Z,0
2017-09-29T00:19:03.870Z,0
2017-09-29T00:20:04.003Z,0
2017-09-29T00:21:03.912Z,0
2017-09-29T00:22:04.254Z,0
2017-09-29T00:23:03.963Z,0
2017-09-29T00:24:05.795Z,0
2017-09-29T00:25:05.419Z,0
2017-09-29T00:26:05.706Z,0
2017-09-29T00:27:05.545Z,0
2017-09-29T00:28:05.341Z,0
2017-09-29T00:29:05.601Z,0
2017-09-29T00:30:05.615Z,0
2017-09-29T00:31:05.609Z,0
2017-09-29T00:32:05.544Z,0
2017-09-29T00:33:05.506Z,0
2017-09-29T00:34:05.422Z,0
2017-09-29T00:35:05.559Z,0
2017-09-29T00:36:04.260Z,0
2017-09-29T00:37:04.277Z,0
2017-09-29T00:38:04.617Z,0
2017-09-29T00:39:04.383Z,0
2017-09-29T00:40:04.345Z,0
2017-09-29T00:41:04.676Z,0
2017-09-29T00:42:04.745Z,0
2017-09-29T00:43:04.411Z,0
2017-09-29T00:44:05.512Z,0
2017-09-29T00:45:04.506Z,0
2017-09-29T00:46:04.486Z,0
2017-09-29T00:47:04.502Z,0
2017-09-29T00:48:04.535Z,0
2017-09-29T00:49:04.549Z,0
2017-09-29T00:50:04.659Z,0
2017-09-29T00:51:04.593Z,0
2017-09-29T00:52:04.618Z,0
2017-09-29T00:53:04.645Z,0
2017-09-29T00:54:04.735Z,0
2017-09-29T00:55:04.703Z,0
2017-09-29T00:56:04.729Z,0
2017-09-29T00:57:04.743Z,0
2017-09-29T00:58:04.758Z,0
2017-09-29T00:59:04.790Z,0
2017-09-29T01:00:04.965Z,0
2017-09-29T01:01:05.165Z,0
2017-09-29T01:02:04.854Z,0
2017-09-29T01:03:04.884Z,0
2017-09-29T01:04:04.952Z,0
2017-09-29T01:05:04.916Z,0
2017-09-29T01:06:04.938Z,0
2017-09-29T01:07:05.287Z,0
2017-09-29T01:08:04.976Z,0
2017-09-29T01:09:05.007Z,0
2017-09-29T01:10:05.021Z,0
2017-09-29T01:11:05.054Z,0
2017-09-29T01:12:05.100Z,0
2017-09-29T01:13:05.114Z,0
2017-09-29T01:14:05.180Z,0
2017-09-29T01:15:05.248Z,0
2017-09-29T01:16:05.475Z,0
2017-09-29T01:17:05.179Z,0
2017-09-29T01:18:05.237Z,0
2017-09-29T01:19:05.284Z,0
2017-09-29T01:20:05.250Z,0
2017-09-29T01:21:05.355Z,0
2017-09-29T01:22:05.296Z,0
2017-09-29T01:23:05.323Z,0
2017-09-29T01:24:05.347Z,0
2017-09-29T01:25:05.692Z,0
2017-09-29T01:26:05.385Z,0
2017-09-29T01:27:05.405Z,0
2017-09-29T01:28:05.428Z,0
2017-09-29T01:29:05.814Z,0
2017-09-29T01:30:05.512Z,0
2017-09-29T01:31:06.792Z,0
2017-09-29T01:32:06.834Z,0
2017-09-29T01:33:05.627Z,0
2017-09-29T01:34:05.646Z,0
2017-09-29T01:35:05.715Z,0
2017-09-29T01:36:05.615Z,0
2017-09-29T01:37:05.632Z,0
2017-09-29T01:38:05.681Z,0
2017-09-29T01:39:05.680Z,0
2017-09-29T01:40:06.038Z,0
2017-09-29T01:41:05.753Z,0
2017-09-29T01:42:06.068Z,0
2017-09-29T01:43:05.769Z,0
2017-09-29T01:44:05.786Z,0
2017-09-29T01:45:05.813Z,0
2017-09-29T01:46:05.835Z,0
2017-09-29T01:47:05.946Z,0
2017-09-29T01:48:06.206Z,0
2017-09-29T01:49:05.947Z,0
2017-09-29T01:50:05.989Z,0
2017-09-29T01:51:05.948Z,0
2017-09-29T01:52:06.289Z,0
2017-09-29T01:53:05.996Z,0
2017-09-29T01:54:06.160Z,0
2017-09-29T01:55:06.043Z,0
2017-09-29T01:56:06.372Z,0
2017-09-29T01:57:06.514Z,0
2017-09-29T01:58:06.102Z,0
2017-09-29T01:59:06.133Z,0
2017-09-29T02:00:06.160Z,0
2017-09-29T02:01:06.174Z,0
2017-09-29T02:02:06.195Z,0
2017-09-29T02:03:06.215Z,0
2017-09-29T02:04:06.355Z,0
2017-09-29T02:05:06.570Z,0
2017-09-29T02:06:06.281Z,0
2017-09-29T02:07:06.368Z,0
2017-09-29T02:08:06.331Z,0
2017-09-29T02:09:06.373Z,0
2017-09-29T02:10:08.079Z,0
2017-09-29T02:11:07.614Z,0
2017-09-29T02:12:07.154Z,0
2017-09-29T02:13:07.989Z,0
2017-09-29T02:14:08.395Z,0
2017-09-29T02:15:07.555Z,0
2017-09-29T02:16:06.817Z,0
2017-09-29T02:17:06.516Z,0
2017-09-29T02:18:06.986Z,0
2017-09-29T02:19:06.560Z,0
2017-09-29T02:20:06.901Z,0
2017-09-29T02:21:06.605Z,0
2017-09-29T02:22:06.633Z,0
2017-09-29T02:23:06.651Z,0
2017-09-29T02:24:06.986Z,0
2017-09-29T02:25:07.218Z,0
2017-09-29T02:26:07.029Z,0
2017-09-29T02:27:07.100Z,0
2017-09-29T02:28:06.775Z,0
2017-09-29T02:29:06.789Z,0
2017-09-29T02:30:06.817Z,0
2017-09-29T02:31:06.838Z,0
2017-09-29T02:32:07.158Z,0
2017-09-29T02:33:07.191Z,0
2017-09-29T02:34:06.894Z,0
2017-09-29T02:35:07.511Z,0
2017-09-29T02:36:06.933Z,0
2017-09-29T02:37:06.958Z,0
2017-09-29T02:38:07.301Z,0
2017-09-29T02:39:07.003Z,0
2017-09-29T02:40:07.444Z,0
2017-09-29T02:41:07.066Z,0
2017-09-29T02:42:07.080Z,0
2017-09-29T02:43:07.092Z,0
2017-09-29T02:44:07.164Z,0
2017-09-29T02:45:07.388Z,0
2017-09-29T02:46:07.166Z,0
2017-09-29T02:47:07.181Z,0
2017-09-29T02:48:07.204Z,0
2017-09-29T02:49:07.218Z,0
2017-09-29T02:50:07.245Z,0
2017-09-29T02:51:07.590Z,0
2017-09-29T02:52:07.740Z,0
2017-09-29T02:53:07.318Z,0
2017-09-29T02:54:07.327Z,0
2017-09-29T02:55:07.356Z,0
2017-09-29T02:56:07.412Z,0
2017-09-29T02:57:08.028Z,0
2017-09-29T02:58:07.431Z,0
2017-09-29T02:59:07.449Z,0
2017-09-29T03:00:07.464Z,0
2017-09-29T03:01:07.488Z,0
2017-09-29T03:02:07.697Z,0
2017-09-29T03:03:07.533Z,0
2017-09-29T03:04:07.576Z,0
2017-09-29T03:05:07.586Z,0
2017-09-29T03:06:07.591Z,0
2017-09-29T03:07:07.619Z,0
2017-09-29T03:08:07.640Z,0
2017-09-29T03:09:07.660Z,0
2017-09-29T03:10:07.700Z,0
2017-09-29T03:11:08.043Z,0
2017-09-29T03:12:07.733Z,0
2017-09-29T03:13:07.753Z,0
2017-09-29T03:14:07.912Z,0
2017-09-29T03:15:07.792Z,0
2017-09-29T03:16:07.855Z,0
2017-09-29T03:17:08.224Z,0
2017-09-29T03:18:08.207Z,0
2017-09-29T03:19:07.882Z,0
2017-09-29T03:20:07.909Z,0
2017-09-29T03:21:07.933Z,0
2017-09-29T03:22:07.957Z,0
2017-09-29T03:23:07.968Z,0
2017-09-29T03:24:07.995Z,0
2017-09-29T03:25:08.512Z,0
2017-09-29T03:26:10.944Z,0
2017-09-29T03:27:09.441Z,0
2017-09-29T03:28:08.114Z,0
2017-09-29T03:29:08.185Z,0
2017-09-29T03:30:08.275Z,0
2017-09-29T03:31:08.467Z,0
2017-09-29T03:32:08.478Z,0
2017-09-29T03:33:08.198Z,0
2017-09-29T03:34:08.571Z,0
2017-09-29T03:35:08.636Z,0
2017-09-29T03:36:08.259Z,0
2017-09-29T03:37:08.601Z,0
2017-09-29T03:38:08.301Z,0
2017-09-29T03:39:08.813Z,0
2017-09-29T03:40:08.351Z,0
2017-09-29T03:41:08.369Z,0
2017-09-29T03:42:08.402Z,0
2017-09-29T03:43:08.420Z,0
2017-09-29T03:44:08.805Z,0
2017-09-29T03:45:08.456Z,0
2017-09-29T03:46:08.480Z,0
2017-09-29T03:47:08.813Z,0
2017-09-29T03:48:08.835Z,0
2017-09-29T03:49:08.982Z,0
2017-09-29T03:50:08.933Z,0
2017-09-29T03:51:08.591Z,0
2017-09-29T03:52:08.919Z,0
2017-09-29T03:53:08.632Z,0
2017-09-29T03:54:08.990Z,0
2017-09-29T03:55:08.699Z,0
2017-09-29T03:56:08.741Z,0
2017-09-29T03:57:08.717Z,0
2017-09-29T03:58:08.747Z,0
2017-09-29T03:59:08.886Z,0
2017-09-29T04:00:08.792Z,0
2017-09-29T04:01:08.805Z,0
2017-09-29T04:02:08.827Z,0
2017-09-29T04:03:08.858Z,0
2017-09-29T04:04:08.929Z,0
2017-09-29T04:05:08.897Z,0
2017-09-29T04:06:08.925Z,0
2017-09-29T04:07:08.952Z,0
2017-09-29T04:08:08.954Z,0
2017-09-29T04:09:09.167Z,0
2017-09-29T04:10:09.004Z,0
2017-09-29T04:11:09.025Z,0
2017-09-29T04:12:09.044Z,0
2017-09-29T04:13:09.091Z,0
2017-09-29T04:14:09.115Z,0
2017-09-29T04:15:09.115Z,0
2017-09-29T04:16:09.141Z,0
2017-09-29T04:17:09.153Z,0
2017-09-29T04:18:09.312Z,0
2017-09-29T04:19:09.208Z,0
2017-09-29T04:20:09.532Z,0
2017-09-29T04:21:09.249Z,0
2017-09-29T04:22:09.595Z,0
2017-09-29T04:23:09.282Z,0
2017-09-29T04:24:09.305Z,0
2017-09-29T04:25:09.336Z,0
2017-09-29T04:26:09.357Z,0
2017-09-29T04:27:09.367Z,0
2017-09-29T04:28:09.397Z,0
2017-09-29T04:29:09.571Z,0
2017-09-29T04:30:09.623Z,0
2017-09-29T04:31:09.492Z,0
2017-09-29T04:32:09.486Z,0
2017-09-29T04:33:09.503Z,0
2017-09-29T04:34:09.523Z,0
2017-09-29T04:35:09.861Z,0
2017-09-29T04:36:09.579Z,0
2017-09-29T04:37:09.589Z,0
2017-09-29T04:38:09.615Z,0
2017-09-29T04:39:09.634Z,0
2017-09-29T04:40:09.966Z,0
2017-09-29T04:41:09.674Z,0
2017-09-29T04:42:09.702Z,4
2017-09-29T04:43:09.719Z,4
2017-09-29T04:44:09.742Z,0
2017-09-29T04:45:09.770Z,4
2017-09-29T04:46:10.102Z,0
2017-09-29T04:47:10.163Z,4
2017-09-29T04:48:09.827Z,4
2017-09-29T04:49:09.876Z,8
2017-09-29T04:50:09.882Z,8
2017-09-29T04:51:10.207Z,8
2017-09-29T04:52:09.917Z,12
2017-09-29T04:53:09.951Z,12
2017-09-29T04:54:10.279Z,16
2017-09-29T04:55:10.384Z,16
2017-09-29T04:56:10.034Z,24
2017-09-29T04:57:10.029Z,28
2017-09-29T04:58:10.095Z,28
2017-09-29T04:59:10.076Z,36
2017-09-29T05:00:10.418Z,44
2017-09-29T05:01:10.116Z,52
2017-09-29T05:02:10.338Z,60
2017-09-29T05:03:10.159Z,68
2017-09-29T05:04:10.185Z,76
2017-09-29T05:05:10.202Z,88
2017-09-29T05:06:10.229Z,100
2017-09-29T05:07:10.249Z,116
2017-09-29T05:08:10.270Z,128
2017-09-29T05:09:10.598Z,148
2017-09-29T05:10:10.640Z,168
2017-09-29T05:11:10.335Z,188
2017-09-29T05:12:10.612Z,208
2017-09-29T05:13:10.430Z,236
2017-09-29T05:14:10.403Z,264
2017-09-29T05:15:10.744Z,296
2017-09-29T05:16:10.476Z,328
2017-09-29T05:17:10.500Z,356
2017-09-29T05:18:10.535Z,380
2017-09-29T05:19:10.514Z,408
2017-09-29T05:20:10.533Z,440
2017-09-29T05:21:10.561Z,480
2017-09-29T05:22:10.789Z,532
2017-09-29T05:23:10.652Z,588
2017-09-29T05:24:10.994Z,648
2017-09-29T05:25:10.668Z,696
2017-09-29T05:26:10.673Z,744
2017-09-29T05:27:10.757Z,796
2017-09-29T05:28:10.768Z,848
2017-09-29T05:29:10.742Z,904
2017-09-29T05:30:10.771Z,964
2017-09-29T05:31:10.776Z,1024
2017-09-29T05:32:10.797Z,1084
2017-09-29T05:33:11.676Z,1140
2017-09-29T05:34:10.839Z,1196
2017-09-29T05:35:11.043Z,1248
2017-09-29T05:36:10.899Z,1300
2017-09-29T05:37:11.218Z,1352
2017-09-29T05:38:10.939Z,1400
2017-09-29T05:39:11.274Z,1456
2017-09-29T05:40:10.997Z,1512
2017-09-29T05:41:11.003Z,1576
2017-09-29T05:42:11.021Z,1640
2017-09-29T05:43:11.167Z,1708
2017-09-29T05:44:11.071Z,1772
2017-09-29T05:45:11.109Z,1828
2017-09-29T05:46:11.209Z,1880
2017-09-29T05:47:11.134Z,1912
2017-09-29T05:48:11.160Z,1940
2017-09-29T05:49:11.175Z,1964
2017-09-29T05:50:11.841Z,1992
2017-09-29T05:51:11.876Z,2024
2017-09-29T05:52:11.571Z,2056
2017-09-29T05:53:11.726Z,2100
2017-09-29T05:54:11.613Z,2148
2017-09-29T05:55:11.317Z,2172
2017-09-29T05:56:11.450Z,2184
2017-09-29T05:57:11.363Z,2208
2017-09-29T05:58:11.383Z,2252
2017-09-29T05:59:11.415Z,2316
2017-09-29T06:00:11.703Z,2424
2017-09-29T06:01:11.457Z,2568
2017-09-29T06:02:11.475Z,2600
2017-09-29T06:03:11.506Z,2600
2017-09-29T06:04:11.609Z,2668
2017-09-29T06:05:11.563Z,2828
2017-09-29T06:06:11.569Z,2900
2017-09-29T06:07:11.723Z,2936
2017-09-29T06:08:11.610Z,2988
2017-09-29T06:09:11.634Z,3032
2017-09-29T06:10:11.671Z,3080
2017-09-29T06:11:11.686Z,3124
2017-09-29T06:12:11.695Z,3176
2017-09-29T06:13:11.722Z,3232
2017-09-29T06:14:11.841Z,3288
2017-09-29T06:15:12.293Z,3356
2017-09-29T06:16:11.804Z,3424
2017-09-29T06:17:11.864Z,3500
2017-09-29T06:18:12.019Z,3576
2017-09-29T06:19:11.859Z,3652
2017-09-29T06:20:11.914Z,3728
2017-09-29T06:21:11.905Z,3796
2017-09-29T06:22:11.923Z,3872
2017-09-29T06:23:11.988Z,3960
2017-09-29T06:24:11.970Z,4040
2017-09-29T06:25:12.311Z,4120
2017-09-29T06:26:12.018Z,4220
2017-09-29T06:27:12.056Z,4348
2017-09-29T06:28:12.071Z,4452
2017-09-29T06:29:12.646Z,4312
2017-09-29T06:30:12.110Z,4296
2017-09-29T06:31:12.452Z,4276
2017-09-29T06:32:12.158Z,4372
2017-09-29T06:33:12.188Z,4328
2017-09-29T06:34:12.253Z,4524
2017-09-29T06:35:12.381Z,4844
2017-09-29T06:36:12.329Z,4664
2017-09-29T06:37:12.267Z,4940
2017-09-29T06:38:12.306Z,4776
2017-09-29T06:39:12.333Z,4900
2017-09-29T06:40:12.666Z,5212
2017-09-29T06:41:12.363Z,4464
2017-09-29T06:42:12.391Z,5176
2017-09-29T06:43:12.408Z,4804
2017-09-29T06:44:12.430Z,4808
2017-09-29T06:45:12.456Z,4888
2017-09-29T06:46:12.513Z,5204
2017-09-29T06:47:12.551Z,5288
2017-09-29T06:48:12.530Z,5672
2017-09-29T06:49:12.554Z,5852
2017-09-29T06:50:12.590Z,5972
2017-09-29T06:51:12.594Z,6100
2017-09-29T06:52:12.621Z,5300
2017-09-29T06:53:12.650Z,5272
2017-09-29T06:54:12.666Z,5444
2017-09-29T06:55:12.686Z,5500
2017-09-29T06:56:12.707Z,5844
2017-09-29T06:57:12.734Z,6024
2017-09-29T06:58:12.756Z,6188
2017-09-29T06:59:12.781Z,6832
2017-09-29T07:00:13.389Z,6820
2017-09-29T07:01:12.829Z,6616
2017-09-29T07:02:12.852Z,6156
2017-09-29T07:03:12.871Z,6220
2017-09-29T07:04:12.905Z,6300
2017-09-29T07:05:12.944Z,6376
2017-09-29T07:06:12.958Z,6476
2017-09-29T07:07:12.971Z,6604
2017-09-29T07:08:13.007Z,6724
2017-09-29T07:09:13.071Z,7116
2017-09-29T07:10:13.271Z,7588
2017-09-29T07:11:13.085Z,7704
2017-09-29T07:12:13.112Z,8356
2017-09-29T07:13:13.126Z,8636
2017-09-29T07:14:13.145Z,7628
2017-09-29T07:15:13.571Z,7668
2017-09-29T07:16:13.193Z,7796
2017-09-29T07:17:13.211Z,7720
2017-09-29T07:18:13.255Z,7768
2017-09-29T07:19:14.149Z,7944
2017-09-29T07:20:14.453Z,8152
2017-09-29T07:21:14.950Z,8776
2017-09-29T07:22:13.339Z,8664
2017-09-29T07:23:13.364Z,7984
2017-09-29T07:24:13.387Z,8428
2017-09-29T07:25:13.412Z,8240
2017-09-29T07:26:13.803Z,8256
2017-09-29T07:27:13.785Z,8228
2017-09-29T07:28:13.515Z,7792
2017-09-29T07:29:13.514Z,7712
2017-09-29T07:30:13.545Z,7656
2017-09-29T07:31:13.564Z,7668
2017-09-29T07:32:13.596Z,7736
2017-09-29T07:33:13.617Z,7860
2017-09-29T07:34:13.637Z,8468
2017-09-29T07:35:13.661Z,8748
2017-09-29T07:36:13.878Z,8792
2017-09-29T07:37:14.192Z,8148
2017-09-29T07:38:14.252Z,8168
2017-09-29T07:39:14.540Z,8356
2017-09-29T07:40:13.799Z,8596
2017-09-29T07:41:13.820Z,9448
2017-09-29T07:42:14.157Z,8896
2017-09-29T07:43:14.345Z,9028
2017-09-29T07:44:14.792Z,9076
2017-09-29T07:45:14.151Z,9012
2017-09-29T07:46:13.939Z,8992
2017-09-29T07:47:14.280Z,9156
2017-09-29T07:48:14.329Z,9016
2017-09-29T07:49:14.027Z,8940
2017-09-29T07:50:14.049Z,8920
2017-09-29T07:51:14.073Z,8892
2017-09-29T07:52:14.101Z,9124
2017-09-29T07:53:14.127Z,10256
2017-09-29T07:54:14.144Z,9044
2017-09-29T07:55:14.494Z,8232
2017-09-29T07:56:14.202Z,8588
2017-09-29T07:57:14.224Z,8592
2017-09-29T07:58:14.598Z,8616
2017-09-29T07:59:14.277Z,9264
2017-09-29T08:00:14.616Z,9476
2017-09-29T08:01:14.375Z,9268
2017-09-29T08:02:14.353Z,8872
2017-09-29T08:03:14.789Z,7488
2017-09-29T08:04:14.720Z,6900
2017-09-29T08:05:14.434Z,7216
2017-09-29T08:06:14.772Z,7024
2017-09-29T08:07:14.486Z,8104
2017-09-29T08:08:14.516Z,7400
2017-09-29T08:09:14.532Z,7512
2017-09-29T08:10:14.556Z,7236
2017-09-29T08:11:14.580Z,7804
2017-09-29T08:12:14.614Z,7280
2017-09-29T08:13:14.659Z,7588
2017-09-29T08:14:14.658Z,7492
2017-09-29T08:15:14.699Z,7732
2017-09-29T08:16:14.708Z,7500
2017-09-29T08:17:14.788Z,7608
2017-09-29T08:18:14.761Z,7792
2017-09-29T08:19:14.789Z,7808
2017-09-29T08:20:14.810Z,7928
2017-09-29T08:21:15.160Z,8052
2017-09-29T08:22:14.882Z,8152
2017-09-29T08:23:15.279Z,8232
2017-09-29T08:24:14.928Z,8312
2017-09-29T08:25:14.944Z,8400
2017-09-29T08:26:14.972Z,8492
2017-09-29T08:27:15.006Z,8436
2017-09-29T08:28:15.025Z,8432
2017-09-29T08:29:15.059Z,8448
2017-09-29T08:30:15.122Z,8432
2017-09-29T08:31:15.099Z,8400
2017-09-29T08:32:15.185Z,8388
2017-09-29T08:33:15.149Z,8404
2017-09-29T08:34:15.184Z,8452
2017-09-29T08:35:15.227Z,8732
2017-09-29T08:36:15.229Z,9040
2017-09-29T08:37:15.275Z,9224
2017-09-29T08:38:15.277Z,8884
2017-09-29T08:39:15.306Z,9060
2017-09-29T08:40:15.334Z,9404
2017-09-29T08:41:15.672Z,9796
2017-09-29T08:42:15.710Z,9772
2017-09-29T08:43:15.428Z,10156
2017-09-29T08:44:15.433Z,10696
2017-09-29T08:45:15.478Z,10908
2017-09-29T08:46:15.799Z,11160
2017-09-29T08:47:15.573Z,11420
2017-09-29T08:48:15.537Z,11220
2017-09-29T08:49:15.567Z,11548
2017-09-29T08:50:15.597Z,11796
2017-09-29T08:51:15.613Z,11340
2017-09-29T08:52:15.643Z,10896
2017-09-29T08:53:15.670Z,10548
2017-09-29T08:54:16.005Z,10636
2017-09-29T08:55:15.719Z,10648
2017-09-29T08:56:15.747Z,10524
2017-09-29T08:57:15.770Z,10708
2017-09-29T08:58:15.798Z,10736
2017-09-29T08:59:15.820Z,10540
2017-09-29T09:00:15.857Z,10352
2017-09-29T09:01:15.878Z,10168
2017-09-29T09:02:16.282Z,11272
2017-09-29T09:03:15.934Z,10520
2017-09-29T09:04:15.951Z,10132
2017-09-29T09:05:15.995Z,10340
2017-09-29T09:06:15.998Z,10348
2017-09-29T09:07:16.032Z,10924
2017-09-29T09:08:16.052Z,11032
2017-09-29T09:09:16.073Z,11360
2017-09-29T09:10:16.105Z,11152
2017-09-29T09:11:16.139Z,11188
2017-09-29T09:12:16.155Z,11816
2017-09-29T09:13:16.183Z,12164
2017-09-29T09:14:16.209Z,11768
2017-09-29T09:15:16.235Z,11632
2017-09-29T09:16:16.579Z,11860
2017-09-29T09:17:16.374Z,12136
2017-09-29T09:18:16.312Z,12424
2017-09-29T09:19:16.650Z,12248
2017-09-29T09:20:16.363Z,12380
2017-09-29T09:21:17.174Z,11928
2017-09-29T09:22:16.418Z,12980
2017-09-29T09:23:16.455Z,13904
2017-09-29T09:24:16.473Z,14196
2017-09-29T09:25:16.499Z,13608
2017-09-29T09:26:16.525Z,11856
2017-09-29T09:27:16.565Z,11716
2017-09-29T09:28:16.573Z,11860
2017-09-29T09:29:16.603Z,11604
2017-09-29T09:30:16.631Z,12344
2017-09-29T09:31:16.653Z,13256
2017-09-29T09:32:16.681Z,12480
2017-09-29T09:33:16.763Z,13536
2017-09-29T09:34:16.737Z,12956
2017-09-29T09:35:17.072Z,12928
2017-09-29T09:36:17.099Z,12772
2017-09-29T09:37:16.819Z,12960
2017-09-29T09:38:16.845Z,12556
2017-09-29T09:39:16.867Z,12884
2017-09-29T09:40:16.895Z,12452
2017-09-29T09:41:16.927Z,13128
2017-09-29T09:42:16.959Z,13200
2017-09-29T09:43:16.997Z,14200
2017-09-29T09:44:17.005Z,17216
2017-09-29T09:45:17.028Z,21024
2017-09-29T09:46:17.067Z,24992
2017-09-29T09:47:17.092Z,29760
2017-09-29T09:48:17.457Z,31456
2017-09-29T09:49:17.455Z,31776
2017-09-29T09:50:17.219Z,31360
2017-09-29T09:51:17.215Z,31104
2017-09-29T09:52:17.228Z,27840
2017-09-29T09:53:17.261Z,31808
2017-09-29T09:54:17.281Z,32512
2017-09-29T09:55:17.313Z,33152
2017-09-29T09:56:17.341Z,33760
2017-09-29T09:57:17.375Z,31840
2017-09-29T09:58:17.402Z,31456
2017-09-29T09:59:17.433Z,32576
2017-09-29T10:00:17.462Z,29408
2017-09-29T10:01:17.490Z,28224
2017-09-29T10:02:17.521Z,27648
2017-09-29T10:03:17.547Z,27488
2017-09-29T10:04:17.587Z,21600
2017-09-29T10:05:17.678Z,16992
2017-09-29T10:06:17.642Z,15616
2017-09-29T10:07:17.673Z,13424
2017-09-29T10:08:17.702Z,15872
2017-09-29T10:09:17.736Z,21344
2017-09-29T10:10:17.772Z,21856
2017-09-29T10:11:17.795Z,25440
2017-09-29T10:12:17.833Z,33856
2017-09-29T10:13:18.175Z,35968
2017-09-29T10:14:17.893Z,40480
2017-09-29T10:15:17.926Z,40128
2017-09-29T10:16:17.952Z,38816
2017-09-29T10:17:17.990Z,30496
2017-09-29T10:18:18.013Z,28640
2017-09-29T10:19:18.052Z,32832
2017-09-29T10:20:18.128Z,27680
2017-09-29T10:21:18.108Z,25952
2017-09-29T10:22:18.148Z,30496
2017-09-29T10:23:18.492Z,26112
2017-09-29T10:24:18.201Z,28256
2017-09-29T10:25:18.241Z,29024
2017-09-29T10:26:18.270Z,34240
2017-09-29T10:27:18.304Z,43104
2017-09-29T10:28:18.339Z,28608
2017-09-29T10:29:18.380Z,40288
2017-09-29T10:30:18.401Z,36608
2017-09-29T10:31:18.436Z,49312
2017-09-29T10:32:18.472Z,33344
2017-09-29T10:33:18.498Z,30496
2017-09-29T10:34:18.527Z,34080
2017-09-29T10:35:18.609Z,39744
2017-09-29T10:36:19.227Z,49536
2017-09-29T10:37:18.623Z,30336
2017-09-29T10:38:18.661Z,32672
2017-09-29T10:39:18.691Z,30368
2017-09-29T10:40:18.728Z,33088
2017-09-29T10:41:18.762Z,26592
2017-09-29T10:42:19.371Z,32224
2017-09-29T10:43:18.826Z,31200
2017-09-29T10:44:18.860Z,34624
2017-09-29T10:45:18.885Z,28896
2017-09-29T10:46:19.148Z,28672
2017-09-29T10:47:18.960Z,33088
2017-09-29T10:48:19.003Z,35936
2017-09-29T10:49:19.018Z,33792
2017-09-29T10:50:19.103Z,33088
2017-09-29T10:51:19.709Z,30432
2017-09-29T10:52:19.127Z,25440
2017-09-29T10:53:19.155Z,24480
2017-09-29T10:54:19.195Z,23232
2017-09-29T10:55:19.221Z,21920
2017-09-29T10:56:20.593Z,20800
2017-09-29T10:57:19.281Z,23584
2017-09-29T10:58:19.359Z,25568
2017-09-29T10:59:19.659Z,30656
2017-09-29T11:00:19.386Z,31232
2017-09-29T11:01:19.422Z,33152
2017-09-29T11:02:19.444Z,35680
2017-09-29T11:03:19.508Z,33024
2017-09-29T11:04:19.832Z,40256
2017-09-29T11:05:19.553Z,30464
2017-09-29T11:06:19.583Z,30176
2017-09-29T11:07:19.611Z,25888
2017-09-29T11:08:19.650Z,29536
2017-09-29T11:09:19.737Z,27776
2017-09-29T11:10:19.710Z,29472
2017-09-29T11:11:19.750Z,26624
2017-09-29T11:12:19.777Z,27072
2017-09-29T11:13:19.817Z,28416
2017-09-29T11:14:19.854Z,25024
2017-09-29T11:15:20.254Z,25312
2017-09-29T11:16:19.946Z,23584
2017-09-29T11:17:19.947Z,30592
2017-09-29T11:18:19.974Z,35232
2017-09-29T11:19:20.010Z,31616
2017-09-29T11:20:20.243Z,36736
2017-09-29T11:21:20.079Z,40832
2017-09-29T11:22:20.118Z,38368
2017-09-29T11:23:20.149Z,36352
2017-09-29T11:24:20.228Z,34624
2017-09-29T11:25:20.210Z,27232
2017-09-29T11:26:20.240Z,21184
2017-09-29T11:27:20.281Z,14348
2017-09-29T11:28:20.314Z,12712
2017-09-29T11:29:20.349Z,11500
2017-09-29T11:30:20.397Z,10856
2017-09-29T11:31:20.411Z,10576
2017-09-29T11:32:20.441Z,10560
2017-09-29T11:33:20.789Z,10824
2017-09-29T11:34:21.002Z,11288
2017-09-29T11:35:20.539Z,12468
2017-09-29T11:36:20.628Z,13848
2017-09-29T11:37:20.606Z,15356
2017-09-29T11:38:20.635Z,14804
2017-09-29T11:39:20.672Z,15584
2017-09-29T11:40:20.701Z,16256
2017-09-29T11:41:20.776Z,15032
2017-09-29T11:42:21.075Z,12616
2017-09-29T11:43:20.811Z,12096
2017-09-29T11:44:20.827Z,12080
2017-09-29T11:45:21.165Z,11828
2017-09-29T11:46:21.514Z,11832
2017-09-29T11:47:20.918Z,11888
2017-09-29T11:48:20.970Z,12100
2017-09-29T11:49:20.971Z,12376
2017-09-29T11:50:21.349Z,12656
2017-09-29T11:51:21.034Z,12988
2017-09-29T11:52:21.066Z,13476
2017-09-29T11:53:21.434Z,14260
2017-09-29T11:54:21.445Z,14956
2017-09-29T11:55:21.747Z,16960
2017-09-29T11:56:21.191Z,16960
2017-09-29T11:57:21.228Z,14224
2017-09-29T11:58:21.257Z,14160
2017-09-29T11:59:21.278Z,14256
2017-09-29T12:00:21.973Z,14796
2017-09-29T12:01:21.331Z,15296
2017-09-29T12:02:21.374Z,15668
2017-09-29T12:03:21.453Z,16288
2017-09-29T12:04:21.414Z,17280
2017-09-29T12:05:21.447Z,18560
2017-09-29T12:06:21.482Z,21088
2017-09-29T12:07:21.508Z,23744
2017-09-29T12:08:21.541Z,20576
2017-09-29T12:09:21.567Z,19360
2017-09-29T12:10:21.602Z,17568
2017-09-29T12:11:21.629Z,17056
2017-09-29T12:12:21.655Z,17696
2017-09-29T12:13:21.688Z,18496
2017-09-29T12:14:21.711Z,16096
2017-09-29T12:15:21.747Z,16864
2017-09-29T12:16:22.086Z,18240
2017-09-29T12:17:21.847Z,22112
2017-09-29T12:18:21.836Z,17888
2017-09-29T12:19:21.866Z,18624
2017-09-29T12:20:21.900Z,14652
2017-09-29T12:21:21.917Z,13176
2017-09-29T12:22:21.945Z,12616
2017-09-29T12:23:21.977Z,12412
2017-09-29T12:24:22.008Z,12384
2017-09-29T12:25:22.032Z,12556
2017-09-29T12:26:22.064Z,12832
2017-09-29T12:27:22.414Z,13180
2017-09-29T12:28:22.132Z,13712
2017-09-29T12:29:22.154Z,13124
2017-09-29T12:30:22.184Z,13040
2017-09-29T12:31:22.212Z,13344
2017-09-29T12:32:22.293Z,14144
2017-09-29T12:33:22.287Z,15672
2017-09-29T12:34:22.312Z,17376
2017-09-29T12:35:22.639Z,18912
2017-09-29T12:36:22.359Z,24160
2017-09-29T12:37:22.383Z,32800
2017-09-29T12:38:22.424Z,43264
2017-09-29T12:39:22.445Z,46400
2017-09-29T12:40:22.473Z,34464
2017-09-29T12:41:22.516Z,45600
2017-09-29T12:42:22.535Z,27552
2017-09-29T12:43:22.564Z,23072
2017-09-29T12:44:22.900Z,25344
2017-09-29T12:45:22.626Z,29408
2017-09-29T12:46:22.650Z,26016
2017-09-29T12:47:22.679Z,30720
2017-09-29T12:48:22.714Z,25280
2017-09-29T12:49:22.745Z,26208
2017-09-29T12:50:22.803Z,26592
2017-09-29T12:51:22.848Z,27456
2017-09-29T12:52:22.829Z,23552
2017-09-29T12:53:23.171Z,26432
2017-09-29T12:54:22.889Z,28608
2017-09-29T12:55:22.917Z,32800
2017-09-29T12:56:23.263Z,39104
2017-09-29T12:57:22.979Z,35616
2017-09-29T12:58:23.011Z,29440
2017-09-29T12:59:23.060Z,28672
2017-09-29T13:00:23.089Z,31168
2017-09-29T13:01:23.096Z,26816
2017-09-29T13:02:23.441Z,22368
2017-09-29T13:03:23.157Z,22848
2017-09-29T13:04:23.187Z,23968
2017-09-29T13:05:23.219Z,26208
2017-09-29T13:06:23.248Z,26656
2017-09-29T13:07:23.280Z,27936
2017-09-29T13:08:23.313Z,33568
2017-09-29T13:09:23.394Z,28416
2017-09-29T13:10:23.364Z,20480
2017-09-29T13:11:23.402Z,22048
2017-09-29T13:12:23.432Z,16448
2017-09-29T13:13:23.456Z,13356
2017-09-29T13:14:23.495Z,10976
2017-09-29T13:15:23.520Z,10100
2017-09-29T13:16:23.865Z,9508
2017-09-29T13:17:23.887Z,9244
2017-09-29T13:18:23.620Z,8992
2017-09-29T13:19:23.649Z,8804
2017-09-29T13:20:23.679Z,8684
2017-09-29T13:21:23.698Z,8672
2017-09-29T13:22:24.048Z,8764
2017-09-29T13:23:23.754Z,8996
2017-09-29T13:24:23.789Z,9352
2017-09-29T13:25:23.814Z,9816
2017-09-29T13:26:23.842Z,10328
2017-09-29T13:27:23.924Z,10944
2017-09-29T13:28:23.909Z,12296
2017-09-29T13:29:23.931Z,13140
2017-09-29T13:30:23.955Z,13476
2017-09-29T13:31:23.996Z,14128
2017-09-29T13:32:24.017Z,14912
2017-09-29T13:33:24.053Z,15212
2017-09-29T13:34:24.078Z,16896
2017-09-29T13:35:24.100Z,18080
2017-09-29T13:36:24.467Z,18304
2017-09-29T13:37:24.471Z,20992
2017-09-29T13:38:24.493Z,17568
2017-09-29T13:39:24.213Z,16960